Salt Lake City, Utah
Traffic Map
Current Weather Conditions
Salt Lake City, Utah
Few Clouds
Few Clouds
22°
Feels Like: 22°
Wind Chill: 22° Ceiling: Unl
Heat Index: 22° Visibility: 10mi
Dew Point: 12° Wind: 6mph
Humidity: 51% Direction: 130° (SE)
Pressure: 30.17in Gusts: 0mph
Raw Report DataKSLC 310453Z 13005KT 10SM FEW100 FEW200 22/12 A3017 RMK AO2 SLP170 T02220117 $
Traffic Incident Summary
Active as of:
Severity:
Category:
InformationThere was an issue retrieving the traffic information for this location. Please try a different location or try again shortly.
Advertisements
Track Severe Weather on mobile